createdAt,value
2023-05-10T00:00:46.308Z,22.22
2023-05-10T00:03:13.079Z,22.20
2023-05-10T00:05:40.099Z,22.20
2023-05-10T00:08:06.759Z,22.21
2023-05-10T00:10:33.447Z,22.20
2023-05-10T00:13:00.160Z,22.19
2023-05-10T00:15:26.782Z,22.18
2023-05-10T00:17:55.677Z,22.18
2023-05-10T00:20:22.382Z,22.18
2023-05-10T00:22:49.008Z,22.17
2023-05-10T00:25:15.780Z,22.15
2023-05-10T00:27:42.388Z,22.15
2023-05-10T00:30:09.424Z,22.14
2023-05-10T00:32:36.129Z,22.13
2023-05-10T00:35:02.806Z,22.13
2023-05-10T00:37:29.455Z,22.12
2023-05-10T00:39:56.087Z,22.11
2023-05-10T00:42:25.494Z,22.11
2023-05-10T00:44:52.219Z,22.09
2023-05-10T00:47:18.962Z,22.09
2023-05-10T00:49:45.881Z,22.09
2023-05-10T00:52:12.632Z,22.07
2023-05-10T00:54:39.271Z,22.08
2023-05-10T00:57:05.998Z,22.07
2023-05-10T00:59:32.681Z,22.06
2023-05-10T01:01:59.488Z,22.06
2023-05-10T01:04:29.502Z,22.04
2023-05-10T01:06:56.226Z,22.04
2023-05-10T01:09:23.055Z,22.03
2023-05-10T01:11:49.681Z,22.03
2023-05-10T01:14:16.442Z,22.04
2023-05-10T01:16:43.080Z,22.02
2023-05-10T01:19:39.158Z,22.01
2023-05-10T01:22:33.741Z,22.02
2023-05-10T01:25:18.279Z,22.01
2023-05-10T01:28:06.732Z,21.99
2023-05-10T01:31:00.718Z,21.97
2023-05-10T01:33:43.034Z,21.96
2023-05-10T01:36:28.025Z,21.96
2023-05-10T01:39:01.691Z,21.95
2023-05-10T01:41:56.557Z,21.94
2023-05-10T01:44:32.376Z,21.94
2023-05-10T01:46:59.653Z,21.93
2023-05-10T01:49:32.044Z,21.91
2023-05-10T01:52:05.529Z,21.91
2023-05-10T01:54:32.194Z,21.91
2023-05-10T01:57:04.721Z,21.91
2023-05-10T01:59:32.904Z,21.89
2023-05-10T02:02:00.023Z,21.90
2023-05-10T02:04:29.295Z,21.89
2023-05-10T02:06:56.031Z,21.88
2023-05-10T02:09:22.676Z,21.88
2023-05-10T02:11:49.405Z,21.87
2023-05-10T02:14:16.393Z,21.86
2023-05-10T02:16:43.071Z,21.86
2023-05-10T02:19:10.254Z,21.85
2023-05-10T02:21:37.230Z,21.84
2023-05-10T02:24:04.211Z,21.85
2023-05-10T02:26:30.967Z,21.84
2023-05-10T02:28:57.848Z,21.85
2023-05-10T02:31:24.594Z,21.84
2023-05-10T02:33:51.271Z,21.83
2023-05-10T02:36:18.129Z,21.83
2023-05-10T02:38:45.093Z,21.82
2023-05-10T02:41:11.794Z,21.82
2023-05-10T02:43:38.421Z,21.81
2023-05-10T02:46:05.160Z,21.81
2023-05-10T02:48:31.793Z,21.80
2023-05-10T02:51:02.055Z,21.80
2023-05-10T02:53:32.312Z,21.81
2023-05-10T02:56:01.832Z,21.79
2023-05-10T02:58:28.399Z,21.77
2023-05-10T03:00:55.218Z,21.78
2023-05-10T03:03:22.059Z,21.77
2023-05-10T03:05:48.680Z,21.76
2023-05-10T03:08:15.342Z,21.75
2023-05-10T03:11:27.134Z,21.76
2023-05-10T03:14:03.193Z,21.75
2023-05-10T03:16:48.087Z,21.75
2023-05-10T03:19:23.352Z,21.74
2023-05-10T03:21:52.430Z,21.74
2023-05-10T03:24:21.293Z,21.73
2023-05-10T03:26:48.085Z,21.72
2023-05-10T03:29:15.468Z,21.72
2023-05-10T03:31:42.121Z,21.71
2023-05-10T03:34:11.776Z,21.71
2023-05-10T03:36:38.650Z,21.71
2023-05-10T03:39:05.342Z,21.71
2023-05-10T03:41:32.111Z,21.70
2023-05-10T03:43:58.757Z,21.69
2023-05-10T03:46:27.462Z,21.68
2023-05-10T03:48:54.115Z,21.67
2023-05-10T03:51:21.410Z,21.67
2023-05-10T03:53:47.989Z,21.68
2023-05-10T03:56:14.580Z,21.67
2023-05-10T03:58:41.368Z,21.67
2023-05-10T04:01:07.994Z,21.65
2023-05-10T04:03:36.613Z,21.65
2023-05-10T04:06:03.871Z,21.65
2023-05-10T04:08:30.736Z,21.65
2023-05-10T04:11:10.226Z,21.64
2023-05-10T04:13:36.950Z,21.65
2023-05-10T04:16:03.861Z,21.64
2023-05-10T04:18:30.660Z,21.63
2023-05-10T04:20:57.257Z,21.62
2023-05-10T04:23:24.241Z,21.61
2023-05-10T04:25:50.859Z,21.62
2023-05-10T04:28:17.675Z,21.61
2023-05-10T04:30:47.142Z,21.61
2023-05-10T04:33:13.896Z,21.61
2023-05-10T04:35:41.120Z,21.60
2023-05-10T04:38:08.054Z,21.59
2023-05-10T04:40:35.396Z,21.59
2023-05-10T04:43:02.057Z,21.59
2023-05-10T04:45:28.702Z,21.59
2023-05-10T04:47:55.392Z,21.57
2023-05-10T04:50:22.048Z,21.57
2023-05-10T04:52:48.688Z,21.58
2023-05-10T04:55:15.404Z,21.73
2023-05-10T04:57:42.118Z,21.64
2023-05-10T05:00:09.385Z,21.55
2023-05-10T05:02:36.070Z,21.60
2023-05-10T05:05:02.939Z,21.52
2023-05-10T05:07:29.969Z,21.56
2023-05-10T05:09:56.577Z,21.58
2023-05-10T05:12:23.401Z,21.55
2023-05-10T05:14:50.142Z,21.52
2023-05-10T05:17:17.146Z,21.52
2023-05-10T05:19:43.773Z,21.47
2023-05-10T05:22:10.630Z,21.50
2023-05-10T05:24:40.311Z,21.51
2023-05-10T05:27:07.094Z,21.55
2023-05-10T05:29:33.719Z,21.51
2023-05-10T05:32:00.418Z,21.56
2023-05-10T05:34:27.177Z,21.57
2023-05-10T05:36:53.810Z,21.54
2023-05-10T05:39:20.497Z,21.54
2023-05-10T05:41:47.429Z,21.50
2023-05-10T05:44:14.098Z,21.51
2023-05-10T05:46:40.816Z,21.54
2023-05-10T05:49:07.468Z,21.61
2023-05-10T05:51:34.064Z,21.73
2023-05-10T05:54:00.685Z,21.78
2023-05-10T05:56:27.323Z,21.82
2023-05-10T05:58:54.008Z,21.91
2023-05-10T06:01:20.933Z,21.91
2023-05-10T06:03:48.029Z,21.92
2023-05-10T06:06:15.461Z,21.91
2023-05-10T06:08:44.720Z,21.91
2023-05-10T06:11:11.440Z,21.88
2023-05-10T06:13:38.050Z,21.87
2023-05-10T06:16:04.874Z,21.84
2023-05-10T06:18:31.582Z,21.91
2023-05-10T06:20:58.540Z,21.91
2023-05-10T06:23:26.489Z,21.91
2023-05-10T06:25:53.383Z,21.92
2023-05-10T06:28:19.961Z,21.89
2023-05-10T06:30:49.016Z,21.83
2023-05-10T06:33:17.019Z,21.81
2023-05-10T06:38:28.835Z,21.58
2023-05-10T06:40:55.668Z,21.42
2023-05-10T06:43:22.431Z,21.28
2023-05-10T06:45:49.479Z,21.21
2023-05-10T06:48:16.580Z,21.26
2023-05-10T06:50:45.117Z,21.47
2023-05-10T06:53:13.067Z,21.62
2023-05-10T06:55:40.171Z,21.79
2023-05-10T06:58:07.333Z,21.96
2023-05-10T07:00:34.321Z,22.18
2023-05-10T07:03:01.086Z,22.23
2023-05-10T07:05:29.029Z,22.28
2023-05-10T07:07:55.887Z,22.42
2023-05-10T07:10:22.634Z,22.46
2023-05-10T07:12:49.308Z,22.46
2023-05-10T07:15:17.269Z,22.50
2023-05-10T07:17:45.923Z,22.52
2023-05-10T07:20:13.239Z,22.51
2023-05-10T07:22:39.851Z,22.52
2023-05-10T07:25:07.025Z,22.54
2023-05-10T07:27:33.637Z,22.53
2023-05-10T07:30:00.260Z,22.54
2023-05-10T07:32:26.928Z,22.54
2023-05-10T07:34:53.625Z,22.54
2023-05-10T07:37:20.277Z,22.53
2023-05-10T07:39:46.874Z,22.55
2023-05-10T07:42:13.698Z,22.54
2023-05-10T07:44:40.293Z,22.52
2023-05-10T07:47:08.219Z,22.52
2023-05-10T07:49:34.988Z,22.52
2023-05-10T07:52:01.608Z,22.54
2023-05-10T07:54:28.206Z,22.52
2023-05-10T07:56:54.791Z,22.55
2023-05-10T07:59:21.428Z,22.54
2023-05-10T08:01:48.022Z,22.55
2023-05-10T08:04:14.815Z,22.55
2023-05-10T08:06:41.680Z,22.54
2023-05-10T08:09:08.557Z,22.56
2023-05-10T08:11:35.357Z,22.53
2023-05-10T08:14:04.304Z,22.55
2023-05-10T08:16:30.986Z,22.53
2023-05-10T08:18:57.779Z,22.52
2023-05-10T08:21:24.525Z,22.52
2023-05-10T08:23:51.313Z,22.52
2023-05-10T08:26:18.055Z,22.55
2023-05-10T08:28:46.717Z,22.55
2023-05-10T08:31:13.469Z,22.55
2023-05-10T08:33:41.521Z,22.54
2023-05-10T08:36:09.101Z,22.54
2023-05-10T08:38:35.852Z,22.54
2023-05-10T08:41:02.996Z,22.52
2023-05-10T08:43:33.152Z,22.53
2023-05-10T08:46:04.089Z,22.51
2023-05-10T08:48:31.193Z,22.49
2023-05-10T08:50:59.093Z,22.47
2023-05-10T08:53:27.611Z,22.48
2023-05-10T08:55:54.257Z,22.47
2023-05-10T08:58:21.337Z,22.47
2023-05-10T09:00:49.562Z,22.48
2023-05-10T09:03:16.652Z,22.51
2023-05-10T09:05:43.383Z,22.52
2023-05-10T09:08:10.065Z,22.54
2023-05-10T09:10:36.698Z,22.56
2023-05-10T09:13:03.312Z,22.61
2023-05-10T09:15:29.923Z,22.66
2023-05-10T09:17:57.190Z,22.70
2023-05-10T09:20:23.938Z,22.75
2023-05-10T09:22:50.682Z,22.84
2023-05-10T09:25:17.810Z,22.87
2023-05-10T09:27:48.556Z,22.95
2023-05-10T09:30:26.505Z,23.03
2023-05-10T09:32:53.314Z,23.10
2023-05-10T09:35:29.965Z,23.23
2023-05-10T09:37:58.025Z,23.31
2023-05-10T09:40:25.803Z,23.38
2023-05-10T09:42:55.234Z,23.40
2023-05-10T09:45:22.578Z,23.43
2023-05-10T09:47:51.659Z,23.42
2023-05-10T09:50:18.619Z,23.42
2023-05-10T09:53:01.528Z,23.44
2023-05-10T09:55:37.074Z,23.43
2023-05-10T09:58:03.798Z,23.45
2023-05-10T10:00:35.487Z,23.49
2023-05-10T10:03:02.412Z,23.51
2023-05-10T10:05:36.249Z,23.50
2023-05-10T10:08:06.202Z,23.49
2023-05-10T10:10:33.989Z,23.45
2023-05-10T10:13:00.823Z,23.41
2023-05-10T10:15:29.861Z,23.41
2023-05-10T10:17:56.529Z,23.37
2023-05-10T10:20:23.639Z,23.36
2023-05-10T10:22:50.295Z,23.37
2023-05-10T10:25:18.703Z,23.35
2023-05-10T10:27:54.539Z,23.31
2023-05-10T10:30:28.557Z,23.29
2023-05-10T10:33:36.412Z,23.24
2023-05-10T10:36:04.299Z,23.23
2023-05-10T10:39:01.222Z,23.21
2023-05-10T10:41:38.257Z,23.22
2023-05-10T10:44:23.361Z,23.23
2023-05-10T10:47:13.052Z,23.21
2023-05-10T10:49:39.858Z,23.19
2023-05-10T10:52:22.805Z,23.16
2023-05-10T10:55:10.299Z,23.17
2023-05-10T10:57:55.867Z,23.13
2023-05-10T11:00:32.892Z,23.14
2023-05-10T11:03:09.049Z,23.12
2023-05-10T11:05:37.272Z,23.10
2023-05-10T11:08:23.240Z,23.08
2023-05-10T11:10:53.045Z,23.06
2023-05-10T11:13:44.361Z,23.04
2023-05-10T11:16:17.968Z,23.05
2023-05-10T11:19:04.997Z,23.04
2023-05-10T11:21:32.463Z,23.04
2023-05-10T11:24:06.796Z,22.99
2023-05-10T11:26:37.329Z,22.94
2023-05-10T11:29:05.896Z,22.95
2023-05-10T11:31:32.651Z,22.92
2023-05-10T11:34:00.217Z,22.89
2023-05-10T11:36:44.956Z,22.92
2023-05-10T11:39:12.551Z,22.89
2023-05-10T11:41:39.654Z,22.87
2023-05-10T11:44:10.573Z,22.86
2023-05-10T11:46:37.593Z,22.85
2023-05-10T11:49:08.004Z,22.84
2023-05-10T11:51:37.825Z,22.85
2023-05-10T11:54:09.581Z,22.81
2023-05-10T11:56:36.189Z,22.79
2023-05-10T11:59:03.461Z,22.77
2023-05-10T12:01:30.292Z,22.75
2023-05-10T12:04:01.525Z,22.72
2023-05-10T12:06:33.332Z,22.72
2023-05-10T12:09:00.050Z,22.70
2023-05-10T12:11:28.149Z,22.71
2023-05-10T12:13:56.426Z,22.69
2023-05-10T12:16:27.246Z,22.70
2023-05-10T12:18:55.711Z,22.68
2023-05-10T12:21:22.512Z,22.68
2023-05-10T12:23:53.600Z,22.68
2023-05-10T12:26:23.662Z,22.68
2023-05-10T12:28:50.499Z,22.67
2023-05-10T12:31:17.205Z,22.64
2023-05-10T12:33:44.578Z,22.64
2023-05-10T12:36:12.127Z,22.65
2023-05-10T12:38:44.186Z,22.63
2023-05-10T12:41:12.007Z,22.61
2023-05-10T12:43:39.000Z,22.59
2023-05-10T12:46:06.524Z,22.58
2023-05-10T12:48:34.791Z,22.59
2023-05-10T12:51:02.393Z,22.57
2023-05-10T12:53:29.119Z,22.57
2023-05-10T12:55:56.060Z,22.57
2023-05-10T12:58:34.838Z,22.56
2023-05-10T13:01:02.955Z,22.55
2023-05-10T13:03:29.640Z,22.54
2023-05-10T13:05:56.294Z,22.55
2023-05-10T13:08:22.864Z,22.55
2023-05-10T13:10:49.581Z,22.56
2023-05-10T13:13:16.543Z,22.59
2023-05-10T13:15:43.151Z,22.60
2023-05-10T13:18:09.810Z,22.61
2023-05-10T13:20:36.702Z,22.61
2023-05-10T13:23:03.983Z,22.62
2023-05-10T13:25:31.008Z,22.63
2023-05-10T13:27:57.633Z,22.64
2023-05-10T13:30:24.974Z,22.67
2023-05-10T13:32:51.809Z,22.67
2023-05-10T13:35:18.466Z,22.70
2023-05-10T13:37:45.086Z,22.72
2023-05-10T13:40:11.994Z,22.75
2023-05-10T13:42:38.600Z,22.78
2023-05-10T13:45:05.730Z,22.81
2023-05-10T13:47:32.373Z,22.83
2023-05-10T13:49:59.445Z,22.84
2023-05-10T13:52:26.864Z,22.90
2023-05-10T13:54:55.894Z,22.92
2023-05-10T13:57:23.724Z,22.94
2023-05-10T13:59:50.367Z,22.92
2023-05-10T14:02:17.187Z,22.91
2023-05-10T14:04:43.751Z,22.91
2023-05-10T14:07:10.450Z,22.91
2023-05-10T14:09:37.066Z,22.90
2023-05-10T14:12:03.926Z,22.89
2023-05-10T14:14:30.512Z,22.88
2023-05-10T14:16:57.240Z,22.86
2023-05-10T14:19:23.898Z,22.86
2023-05-10T14:21:50.490Z,22.85
2023-05-10T14:24:17.060Z,22.84
2023-05-10T14:26:43.817Z,22.84
2023-05-10T14:29:12.476Z,22.82
2023-05-10T14:31:39.484Z,22.83
2023-05-10T14:34:06.703Z,22.82
2023-05-10T14:36:33.508Z,22.82
2023-05-10T14:39:00.300Z,22.81
2023-05-10T14:41:26.924Z,22.81
2023-05-10T14:43:53.708Z,22.81
2023-05-10T14:46:20.873Z,22.82
2023-05-10T14:48:47.573Z,22.83
2023-05-10T14:51:14.289Z,22.83
2023-05-10T14:53:43.140Z,22.84
2023-05-10T14:56:09.715Z,22.84
2023-05-10T14:58:36.405Z,22.83
2023-05-10T15:01:02.992Z,22.83
2023-05-10T15:03:30.248Z,22.83
2023-05-10T15:05:58.653Z,22.82
2023-05-10T15:08:28.791Z,22.80
2023-05-10T15:10:56.974Z,22.79
2023-05-10T15:13:23.664Z,22.79
2023-05-10T15:15:52.364Z,22.77
2023-05-10T15:18:19.097Z,22.74
2023-05-10T15:20:45.696Z,22.72
2023-05-10T15:23:12.359Z,22.70
2023-05-10T15:25:38.956Z,22.71
2023-05-10T15:28:05.744Z,22.67
2023-05-10T15:30:32.373Z,22.67
2023-05-10T15:32:59.240Z,22.65
2023-05-10T15:35:26.991Z,22.64
2023-05-10T15:37:53.577Z,22.62
2023-05-10T15:40:20.423Z,22.61
2023-05-10T15:42:47.044Z,22.59
2023-05-10T15:45:13.647Z,22.59
2023-05-10T15:47:40.636Z,22.57
2023-05-10T15:50:07.825Z,22.57
2023-05-10T15:52:34.884Z,22.55
2023-05-10T15:55:01.513Z,22.54
2023-05-10T15:57:28.132Z,22.54
2023-05-10T15:59:56.882Z,22.51
2023-05-10T16:02:23.638Z,22.51
2023-05-10T16:04:50.345Z,22.49
2023-05-10T16:07:16.922Z,22.48
2023-05-10T16:09:46.348Z,22.48
2023-05-10T16:12:12.921Z,22.47
2023-05-10T16:14:39.504Z,22.46
2023-05-10T16:17:06.349Z,22.45
2023-05-10T16:19:33.221Z,22.44
2023-05-10T16:21:59.805Z,22.44
2023-05-10T16:24:26.476Z,22.42
2023-05-10T16:26:53.187Z,22.41
2023-05-10T16:29:19.846Z,22.41
2023-05-10T16:31:46.989Z,22.39
2023-05-10T16:34:13.679Z,22.40
2023-05-10T16:36:40.451Z,22.39
2023-05-10T16:39:07.744Z,22.38
2023-05-10T16:41:34.663Z,22.37
2023-05-10T16:44:01.889Z,22.37
2023-05-10T16:46:28.537Z,22.36
2023-05-10T16:48:55.200Z,22.35
2023-05-10T16:51:21.844Z,22.34
2023-05-10T16:53:48.493Z,22.33
2023-05-10T16:56:17.698Z,22.33
2023-05-10T16:58:44.473Z,22.34
2023-05-10T17:01:11.108Z,22.33
2023-05-10T17:03:37.937Z,22.34
2023-05-10T17:06:05.969Z,22.34
2023-05-10T17:08:32.977Z,22.37
2023-05-10T17:11:03.874Z,22.37
2023-05-10T17:13:30.671Z,22.39
2023-05-10T17:15:57.460Z,22.40
2023-05-10T17:18:24.184Z,22.42
2023-05-10T17:20:50.841Z,22.44
2023-05-10T17:23:17.589Z,22.47
2023-05-10T17:25:44.320Z,22.49
2023-05-10T17:28:11.017Z,22.53
2023-05-10T17:30:37.626Z,22.57
2023-05-10T17:33:04.975Z,22.59
2023-05-10T17:35:31.976Z,22.63
2023-05-10T17:37:58.665Z,22.68
2023-05-10T17:40:25.573Z,22.71
2023-05-10T17:42:52.363Z,22.75
2023-05-10T17:45:19.245Z,22.77
2023-05-10T17:47:46.382Z,22.78
2023-05-10T17:50:13.025Z,22.79
2023-05-10T17:52:39.644Z,22.78
2023-05-10T17:55:06.921Z,22.78
2023-05-10T17:57:33.698Z,22.77
2023-05-10T18:00:04.512Z,22.78
2023-05-10T18:02:31.155Z,22.75
2023-05-10T18:05:00.052Z,22.75
2023-05-10T18:07:27.198Z,22.74
2023-05-10T18:09:53.820Z,22.72
2023-05-10T18:12:20.440Z,22.72
2023-05-10T18:14:47.169Z,22.72
2023-05-10T18:17:13.804Z,22.69
2023-05-10T18:19:40.753Z,22.69
2023-05-10T18:22:10.519Z,22.69
2023-05-10T18:24:39.484Z,22.69
2023-05-10T18:27:07.995Z,22.68
2023-05-10T18:29:34.756Z,22.67
2023-05-10T18:32:01.421Z,22.67
2023-05-10T18:34:28.797Z,22.67
2023-05-10T18:36:55.542Z,22.67
2023-05-10T18:39:22.344Z,22.67
2023-05-10T18:41:50.240Z,22.68
2023-05-10T18:44:16.969Z,22.67
2023-05-10T18:46:43.681Z,22.69
2023-05-10T18:49:10.295Z,22.70
2023-05-10T18:51:36.876Z,22.70
2023-05-10T18:54:03.605Z,22.70
2023-05-10T18:56:30.459Z,22.70
2023-05-10T18:58:57.193Z,22.70
2023-05-10T19:01:23.875Z,22.71
2023-05-10T19:03:50.553Z,22.71
2023-05-10T19:06:17.149Z,22.70
2023-05-10T19:08:43.802Z,22.69
2023-05-10T19:11:13.049Z,22.67
2023-05-10T19:13:39.637Z,22.67
2023-05-10T19:16:10.556Z,22.64
2023-05-10T19:18:38.375Z,22.63
2023-05-10T19:21:10.927Z,22.62
2023-05-10T19:23:39.036Z,22.59
2023-05-10T19:26:05.898Z,22.58
2023-05-10T19:28:32.523Z,22.56
2023-05-10T19:31:02.151Z,22.55
2023-05-10T19:33:28.852Z,22.53
2023-05-10T19:35:58.252Z,22.53
2023-05-10T19:38:25.105Z,22.52
2023-05-10T19:40:57.721Z,22.49
2023-05-10T19:43:27.733Z,22.47
2023-05-10T19:45:54.886Z,22.46
2023-05-10T19:48:21.639Z,22.44
2023-05-10T19:50:48.285Z,22.44
2023-05-10T19:53:14.914Z,22.42
2023-05-10T19:55:41.689Z,22.42
2023-05-10T19:58:08.363Z,22.40
2023-05-10T20:00:35.075Z,22.39
2023-05-10T20:03:02.166Z,22.38
2023-05-10T20:05:29.057Z,22.37
2023-05-10T20:07:55.755Z,22.36
2023-05-10T20:10:22.999Z,22.35
2023-05-10T20:12:53.893Z,22.35
2023-05-10T20:15:21.907Z,22.33
2023-05-10T20:17:49.385Z,22.33
2023-05-10T20:20:16.657Z,22.33
2023-05-10T20:22:44.314Z,22.30
2023-05-10T20:25:11.119Z,22.29
2023-05-10T20:27:37.700Z,22.30
2023-05-10T20:30:04.981Z,22.29
2023-05-10T20:32:31.992Z,22.28
2023-05-10T20:34:58.615Z,22.27
2023-05-10T20:37:25.324Z,22.26
2023-05-10T20:39:51.910Z,22.26
2023-05-10T20:42:18.543Z,22.24
2023-05-10T20:44:45.131Z,22.24
2023-05-10T20:47:11.749Z,22.23
2023-05-10T20:49:38.461Z,22.23
2023-05-10T20:52:05.675Z,22.22
2023-05-10T20:54:32.277Z,22.22
2023-05-10T20:56:59.363Z,22.21
2023-05-10T20:59:25.967Z,22.20
2023-05-10T21:01:55.017Z,22.21
2023-05-10T21:04:21.844Z,22.20
2023-05-10T21:06:48.474Z,22.19
2023-05-10T21:09:15.094Z,22.18
2023-05-10T21:11:41.773Z,22.18
2023-05-10T21:14:08.688Z,22.18
2023-05-10T21:16:35.469Z,22.18
2023-05-10T21:19:02.417Z,22.15
2023-05-10T21:21:29.374Z,22.17
2023-05-10T21:23:56.080Z,22.16
2023-05-10T21:26:23.348Z,22.15
2023-05-10T21:28:49.999Z,22.14
2023-05-10T21:31:16.958Z,22.14
2023-05-10T21:33:43.677Z,22.14
2023-05-10T21:36:10.306Z,22.13
2023-05-10T21:38:36.966Z,22.13
2023-05-10T21:41:07.140Z,22.13
2023-05-10T21:43:33.932Z,22.13
2023-05-10T21:46:01.062Z,22.12
2023-05-10T21:48:29.797Z,22.11
2023-05-10T21:50:56.501Z,22.11
2023-05-10T21:53:23.102Z,22.11
2023-05-10T21:55:49.694Z,22.11
2023-05-10T21:58:16.282Z,22.10
2023-05-10T22:00:43.378Z,22.09
2023-05-10T22:03:10.101Z,22.09
2023-05-10T22:05:36.841Z,22.09
2023-05-10T22:08:03.596Z,22.09
2023-05-10T22:10:30.460Z,22.09
2023-05-10T22:12:57.422Z,22.08
2023-05-10T22:15:24.129Z,22.08
2023-05-10T22:17:50.950Z,22.08
2023-05-10T22:20:17.958Z,22.08
2023-05-10T22:22:45.355Z,22.07
2023-05-10T22:25:11.950Z,22.07
2023-05-10T22:27:38.550Z,22.06
2023-05-10T22:30:06.941Z,22.07
2023-05-10T22:32:33.631Z,22.06
2023-05-10T22:35:00.265Z,22.05
2023-05-10T22:37:26.969Z,22.04
2023-05-10T22:39:53.770Z,22.05
2023-05-10T22:42:20.497Z,22.05
2023-05-10T22:44:47.161Z,22.03
2023-05-10T22:47:13.767Z,22.02
2023-05-10T22:49:40.375Z,22.01
2023-05-10T22:52:06.976Z,22.01
2023-05-10T22:54:36.011Z,21.98
2023-05-10T22:57:02.911Z,22.00
2023-05-10T22:59:29.550Z,21.98
2023-05-10T23:01:56.170Z,21.97
2023-05-10T23:04:25.179Z,21.98
2023-05-10T23:06:51.852Z,21.98
2023-05-10T23:09:18.714Z,21.96
2023-05-10T23:11:45.294Z,21.96
2023-05-10T23:14:11.973Z,21.96
2023-05-10T23:16:38.726Z,21.95
2023-05-10T23:19:05.450Z,21.94
2023-05-10T23:21:32.312Z,21.94
2023-05-10T23:23:59.088Z,21.94
2023-05-10T23:26:25.755Z,21.93
2023-05-10T23:28:52.385Z,21.91
2023-05-10T23:31:19.127Z,21.92
2023-05-10T23:33:45.924Z,21.91
2023-05-10T23:36:12.656Z,21.90
2023-05-10T23:38:39.541Z,21.89
2023-05-10T23:41:06.223Z,21.90
2023-05-10T23:43:32.878Z,21.89
2023-05-10T23:45:59.644Z,21.88
2023-05-10T23:48:26.351Z,21.89
2023-05-10T23:50:53.081Z,21.88
2023-05-10T23:53:19.662Z,21.88
2023-05-10T23:55:46.488Z,21.86
2023-05-10T23:58:13.055Z,21.86
